CYKO

Akulivik Airport

Akulivik, Quebec, Canada
METAR CYKO 182000Z VRB02KT 20SM FEW220 M23/M26 A2979 RMK CI1 LAST OB NEXT / 191200 UTC SLP091
Observed Flight Rules
Nov-18 @ 20:00 UTC (5 hours ago) Visual Flight Rules
Wind Visibility Clouds
Variable at 2 knots 20 miles
  • Few at 22,000' AGL
Temperatures Readings
Current -23°C / -9°F
Dewpoint -26°C / -15°F
Humidity 77%
Altimeter 29.79" Hg
Pressure 1009.1 hPa
Elevation 9
METAR CYKO 182000Z VRB02KT 20SM FEW220 M23/M26 A2979 RMK CI1 LAST OB NEXT / 191200 UTC SLP091
Observed Flight Rules
Nov-18 @ 20:00 UTC
(5 hours ago)
VFR
Wind Visibility
Variable at 2 knots 20 miles
Clouds
  • Few at 22,000' AGL
Temperature Dewpoint
-23°C / -9°F -26°C / -15°F
Humidity Altimeter Pressure
77% 29.79" Hg 1009.1 hPa